Terminal Aerodrome Forecast
Issued by NWS Sioux Falls, SD

Home | Current Version | Previous Version | Text Only | Print | Product List | Glossary On
Versions: 1 2 3 4 5 6 7 8 9 10 11 12 13 14 15 16 17 18 19 20 21 22 23 24 25 26 27 28 29
000
FTUS43 KFSD 310520
TAFSUX
TAF
KSUX 310520Z 3106/0106 14005KT P6SM BKN200
     FM311600 13007KT P6SM SCT008 OVC012
     FM311800 10008KT 5SM -RASN OVC008
     FM312200 07010KT 1 1/2SM -SN OVC008
     FM010300 04015KT 1 1/2SM -SN OVC008=

USA.gov is the U.S. government's official web portal to all federal, state and local government web resources and services.